createdAt,value
2022-10-09T00:01:08.932Z,2.33
2022-10-09T00:03:39.741Z,2.13
2022-10-09T00:06:09.705Z,1.80
2022-10-09T00:08:39.435Z,2.03
2022-10-09T00:11:08.609Z,1.60
2022-10-09T00:13:37.744Z,2.10
2022-10-09T00:16:08.233Z,1.73
2022-10-09T00:18:38.368Z,2.33
2022-10-09T00:21:07.218Z,2.93
2022-10-09T00:23:35.135Z,2.20
2022-10-09T00:26:03.545Z,2.50
2022-10-09T00:28:36.525Z,2.57
2022-10-09T00:31:06.873Z,1.60
2022-10-09T00:33:35.414Z,1.47
2022-10-09T00:36:06.365Z,2.07
2022-10-09T00:38:35.139Z,2.27
2022-10-09T00:41:03.765Z,1.90
2022-10-09T00:43:44.659Z,1.77
2022-10-09T00:46:21.142Z,2.33
2022-10-09T00:48:57.181Z,2.07
2022-10-09T00:51:26.825Z,2.10
2022-10-09T00:53:54.864Z,2.13
2022-10-09T00:56:22.890Z,2.17
2022-10-09T00:58:56.092Z,1.67
2022-10-09T01:01:24.156Z,1.80
2022-10-09T01:03:52.402Z,1.67
2022-10-09T01:06:28.145Z,1.50
2022-10-09T01:09:04.034Z,1.30
2022-10-09T01:11:39.963Z,2.00
2022-10-09T01:14:19.559Z,1.63
2022-10-09T01:16:57.727Z,1.30
2022-10-09T01:19:51.561Z,2.20
2022-10-09T01:22:43.094Z,1.83
2022-10-09T01:25:20.927Z,1.70
2022-10-09T01:27:50.569Z,1.43
2022-10-09T01:30:18.655Z,2.00
2022-10-09T01:32:51.961Z,1.57
2022-10-09T01:35:22.655Z,1.73
2022-10-09T01:37:53.429Z,1.37
2022-10-09T01:40:23.023Z,1.70
2022-10-09T01:42:52.732Z,2.10
2022-10-09T01:45:20.705Z,2.37
2022-10-09T01:47:48.726Z,1.57
2022-10-09T01:50:23.028Z,1.50
2022-10-09T01:52:53.895Z,1.83
2022-10-09T01:55:37.578Z,2.27
2022-10-09T01:58:12.169Z,1.70
2022-10-09T02:00:45.229Z,1.33
2022-10-09T02:03:16.431Z,1.23
2022-10-09T02:05:47.208Z,1.77
2022-10-09T02:08:19.241Z,1.63
2022-10-09T02:10:50.731Z,1.53
2022-10-09T02:13:20.229Z,1.80
2022-10-09T02:15:52.895Z,1.10
2022-10-09T02:18:27.157Z,1.43
2022-10-09T02:21:01.013Z,1.50
2022-10-09T02:23:29.956Z,1.83
2022-10-09T02:25:58.005Z,1.07
2022-10-09T02:28:27.474Z,1.93
2022-10-09T02:31:03.217Z,1.40
2022-10-09T02:33:35.041Z,1.10
2022-10-09T02:36:03.445Z,1.40
2022-10-09T02:38:31.314Z,1.37
2022-10-09T02:41:00.204Z,1.23
2022-10-09T02:43:29.684Z,1.20
2022-10-09T02:45:57.626Z,1.40
2022-10-09T02:48:25.403Z,0.90
2022-10-09T02:50:53.424Z,1.30
2022-10-09T02:53:21.459Z,1.13
2022-10-09T02:55:49.396Z,1.30
2022-10-09T02:58:17.523Z,1.53
2022-10-09T03:00:49.524Z,1.57
2022-10-09T03:03:17.553Z,1.73
2022-10-09T03:05:45.636Z,1.43
2022-10-09T03:08:13.950Z,2.17
2022-10-09T03:10:43.025Z,1.27
2022-10-09T03:13:11.149Z,1.17
2022-10-09T03:15:39.192Z,1.20
2022-10-09T03:18:08.500Z,1.80
2022-10-09T03:20:36.355Z,1.60
2022-10-09T03:23:04.334Z,1.87
2022-10-09T03:25:32.437Z,1.17
2022-10-09T03:28:00.309Z,1.60
2022-10-09T03:30:28.092Z,1.03
2022-10-09T03:32:56.049Z,1.10
2022-10-09T03:35:25.407Z,0.90
2022-10-09T03:37:53.279Z,1.40
2022-10-09T03:40:21.412Z,1.00
2022-10-09T03:42:49.598Z,0.97
2022-10-09T03:45:17.979Z,1.30
2022-10-09T03:47:45.949Z,1.53
2022-10-09T03:50:13.852Z,1.33
2022-10-09T03:52:43.067Z,1.47
2022-10-09T03:55:11.139Z,1.47
2022-10-09T03:57:39.025Z,1.40
2022-10-09T04:00:08.628Z,1.87
2022-10-09T04:02:37.103Z,1.63
2022-10-09T04:05:05.681Z,1.87
2022-10-09T04:07:34.506Z,1.30
2022-10-09T04:10:04.310Z,1.50
2022-10-09T04:12:32.329Z,1.67
2022-10-09T04:15:00.217Z,1.27
2022-10-09T04:17:28.213Z,1.23
2022-10-09T04:19:56.174Z,1.40
2022-10-09T04:22:24.210Z,1.60
2022-10-09T04:24:52.137Z,1.37
2022-10-09T04:27:21.428Z,1.53
2022-10-09T04:29:49.511Z,1.20
2022-10-09T04:32:17.527Z,1.67
2022-10-09T04:34:45.392Z,1.27
2022-10-09T04:37:13.747Z,1.30
2022-10-09T04:39:41.674Z,1.33
2022-10-09T04:42:09.921Z,1.57
2022-10-09T04:44:39.279Z,1.67
2022-10-09T04:47:11.137Z,1.43
2022-10-09T04:49:39.874Z,1.60
2022-10-09T04:52:07.935Z,1.90
2022-10-09T04:54:35.887Z,1.57
2022-10-09T04:57:03.899Z,1.10
2022-10-09T04:59:32.210Z,1.80
2022-10-09T05:02:01.567Z,1.40
2022-10-09T05:04:29.644Z,1.60
2022-10-09T05:06:57.617Z,1.40
2022-10-09T05:09:25.612Z,1.83
2022-10-09T05:11:53.668Z,1.73
2022-10-09T05:14:21.674Z,1.80
2022-10-09T05:17:12.579Z,1.17
2022-10-09T05:19:42.247Z,1.07
2022-10-09T05:22:10.322Z,1.27
2022-10-09T05:24:38.263Z,0.97
2022-10-09T05:27:06.128Z,1.30
2022-10-09T05:29:34.261Z,1.50
2022-10-09T05:32:02.292Z,1.00
2022-10-09T05:34:30.317Z,1.00
2022-10-09T05:36:59.775Z,1.90
2022-10-09T05:39:27.767Z,1.63
2022-10-09T05:41:55.690Z,1.00
2022-10-09T05:44:23.837Z,1.30
2022-10-09T05:46:51.807Z,1.23
2022-10-09T05:49:19.842Z,1.13
2022-10-09T05:51:48.701Z,1.00
2022-10-09T05:54:19.322Z,1.40
2022-10-09T05:56:47.441Z,1.17
2022-10-09T05:59:19.687Z,1.30
2022-10-09T06:01:50.554Z,1.90
2022-10-09T06:04:20.514Z,1.57
2022-10-09T06:06:49.517Z,1.60
2022-10-09T06:09:22.267Z,1.47
2022-10-09T06:11:50.928Z,1.50
2022-10-09T06:14:21.917Z,1.23
2022-10-09T06:16:50.329Z,1.57
2022-10-09T06:19:20.556Z,1.50
2022-10-09T06:21:49.291Z,1.10
2022-10-09T06:24:26.945Z,1.43
2022-10-09T06:26:56.668Z,1.37
2022-10-09T06:29:24.880Z,2.60
2022-10-09T06:31:52.775Z,2.40
2022-10-09T06:34:20.773Z,2.70
2022-10-09T06:36:48.724Z,2.60
2022-10-09T06:39:17.078Z,1.70
2022-10-09T06:41:46.670Z,1.50
2022-10-09T06:44:17.220Z,1.30
2022-10-09T06:46:46.625Z,1.30
2022-10-09T06:49:14.517Z,1.77
2022-10-09T06:51:42.403Z,1.40
2022-10-09T06:54:14.102Z,1.80
2022-10-09T06:56:42.063Z,1.50
2022-10-09T06:59:12.057Z,1.83
2022-10-09T07:01:39.997Z,1.30
2022-10-09T07:04:10.458Z,1.80
2022-10-09T07:06:40.213Z,1.60
2022-10-09T07:09:09.723Z,1.73
2022-10-09T07:11:39.566Z,1.70
2022-10-09T07:14:09.841Z,1.97
2022-10-09T07:16:41.123Z,1.57
2022-10-09T07:19:11.473Z,1.50
2022-10-09T07:21:41.567Z,3.20
2022-10-09T07:24:10.131Z,3.27
2022-10-09T07:26:39.565Z,2.77
2022-10-09T07:29:09.958Z,2.03
2022-10-09T07:31:39.289Z,2.83
2022-10-09T07:34:07.897Z,2.93
2022-10-09T07:36:36.352Z,2.53
2022-10-09T07:39:05.591Z,2.17
2022-10-09T07:41:33.824Z,2.30
2022-10-09T07:44:01.759Z,2.20
2022-10-09T07:46:33.782Z,1.80
2022-10-09T07:49:04.062Z,2.47
2022-10-09T07:51:32.730Z,1.80
2022-10-09T07:54:02.176Z,2.00
2022-10-09T07:56:31.807Z,1.60
2022-10-09T07:59:01.291Z,1.80
2022-10-09T08:01:30.612Z,1.43
2022-10-09T08:03:59.862Z,1.93
2022-10-09T08:06:29.657Z,2.33
2022-10-09T08:09:00.233Z,2.13
2022-10-09T08:11:30.337Z,2.33
2022-10-09T08:13:58.731Z,1.93
2022-10-09T08:16:29.430Z,2.47
2022-10-09T08:18:58.648Z,2.00
2022-10-09T08:21:29.188Z,2.63
2022-10-09T08:23:58.721Z,2.30
2022-10-09T08:26:28.251Z,2.20
2022-10-09T08:28:58.151Z,2.07
2022-10-09T08:31:26.394Z,2.47
2022-10-09T08:33:55.115Z,2.57
2022-10-09T08:36:24.017Z,3.37
2022-10-09T08:38:53.591Z,2.00
2022-10-09T08:41:40.802Z,2.60
2022-10-09T08:44:15.501Z,2.50
2022-10-09T08:46:53.357Z,2.27
2022-10-09T08:49:26.273Z,2.87
2022-10-09T08:51:55.348Z,3.37
2022-10-09T08:54:32.581Z,2.83
2022-10-09T08:57:05.154Z,2.07
2022-10-09T08:59:33.637Z,1.40
2022-10-09T09:02:08.597Z,1.50
2022-10-09T09:04:54.615Z,2.03
2022-10-09T09:07:30.993Z,2.00
2022-10-09T09:10:07.029Z,1.60
2022-10-09T09:12:45.372Z,1.97
2022-10-09T09:15:36.079Z,1.30
2022-10-09T09:18:18.962Z,1.57
2022-10-09T09:20:53.739Z,1.57
2022-10-09T09:23:26.650Z,1.50
2022-10-09T09:25:57.377Z,1.20
2022-10-09T09:28:29.095Z,1.57
2022-10-09T09:31:00.235Z,1.20
2022-10-09T09:33:39.886Z,1.80
2022-10-09T09:36:18.547Z,1.57
2022-10-09T09:39:24.982Z,1.10
2022-10-09T09:41:36.187Z,1.23
2022-10-09T09:44:04.610Z,1.73
2022-10-09T09:46:34.025Z,1.00
2022-10-09T09:49:04.785Z,0.90
2022-10-09T09:51:37.526Z,1.20
2022-10-09T09:54:09.631Z,1.40
2022-10-09T09:59:34.822Z,1.33
2022-10-09T10:02:10.822Z,1.30
2022-10-09T10:04:43.176Z,1.10
2022-10-09T10:07:11.400Z,1.10
2022-10-09T10:09:39.292Z,1.50
2022-10-09T10:12:17.292Z,1.20
2022-10-09T10:14:51.205Z,1.57
2022-10-09T10:17:28.518Z,1.17
2022-10-09T10:19:56.821Z,2.13
2022-10-09T10:22:27.533Z,0.73
2022-10-09T10:24:59.050Z,1.13
2022-10-09T10:27:34.381Z,1.20
2022-10-09T10:30:05.840Z,1.10
2022-10-09T10:32:36.003Z,1.90
2022-10-09T10:35:07.166Z,1.60
2022-10-09T10:37:43.668Z,0.60
2022-10-09T10:40:17.755Z,1.73
2022-10-09T10:42:59.248Z,3.40
2022-10-09T10:45:34.570Z,1.97
2022-10-09T10:48:04.587Z,1.53
2022-10-09T10:50:39.055Z,1.20
2022-10-09T10:53:18.035Z,0.83
2022-10-09T10:55:54.158Z,0.83
2022-10-09T10:58:29.681Z,1.03
2022-10-09T11:01:14.761Z,1.13
2022-10-09T11:03:58.385Z,0.90
2022-10-09T11:06:34.521Z,0.70
2022-10-09T11:09:11.127Z,1.00
2022-10-09T11:11:44.882Z,0.93
2022-10-09T11:14:30.295Z,0.60
2022-10-09T11:17:03.186Z,0.83
2022-10-09T11:19:54.038Z,1.17
2022-10-09T11:22:35.411Z,0.93
2022-10-09T11:25:28.555Z,0.97
2022-10-09T11:28:03.096Z,0.60
2022-10-09T11:30:37.835Z,0.87
2022-10-09T11:33:18.307Z,1.07
2022-10-09T11:35:49.649Z,1.33
2022-10-09T11:38:26.702Z,0.67
2022-10-09T11:40:57.293Z,0.90
2022-10-09T11:43:47.566Z,0.70
2022-10-09T11:46:24.862Z,0.93
2022-10-09T11:48:59.695Z,0.60
2022-10-09T11:51:36.570Z,1.20
2022-10-09T11:54:06.719Z,1.07
2022-10-09T11:56:34.984Z,0.70
2022-10-09T11:59:05.476Z,1.20
2022-10-09T12:01:37.731Z,0.83
2022-10-09T12:04:09.676Z,1.10
2022-10-09T12:06:48.584Z,0.67
2022-10-09T12:09:23.933Z,1.17
2022-10-09T12:11:59.338Z,0.73
2022-10-09T12:14:29.822Z,0.60
2022-10-09T12:17:00.270Z,0.80
2022-10-09T12:19:31.656Z,0.83
2022-10-09T12:22:06.777Z,1.10
2022-10-09T12:24:40.455Z,0.60
2022-10-09T12:27:09.324Z,0.73
2022-10-09T12:29:49.071Z,0.70
2022-10-09T12:32:25.817Z,0.50
2022-10-09T12:34:55.050Z,0.73
2022-10-09T12:37:31.875Z,0.80
2022-10-09T12:40:09.245Z,1.67
2022-10-09T12:42:37.470Z,0.70
2022-10-09T12:45:06.242Z,0.50
2022-10-09T12:47:36.484Z,1.03
2022-10-09T12:50:20.289Z,0.67
2022-10-09T12:52:50.027Z,0.80
2022-10-09T12:55:26.419Z,0.50
2022-10-09T12:57:57.227Z,0.73
2022-10-09T13:00:25.338Z,1.40
2022-10-09T13:02:55.567Z,0.70
2022-10-09T13:05:23.753Z,1.10
2022-10-09T13:07:53.745Z,0.63
2022-10-09T13:10:24.603Z,1.13
2022-10-09T13:12:54.493Z,0.70
2022-10-09T13:15:32.979Z,0.30
2022-10-09T13:18:13.481Z,0.60
2022-10-09T13:20:41.634Z,0.50
2022-10-09T13:23:28.287Z,0.50
2022-10-09T13:25:58.863Z,0.63
2022-10-09T13:28:30.781Z,0.60
2022-10-09T13:31:07.665Z,0.40
2022-10-09T13:33:37.258Z,0.90
2022-10-09T13:36:05.475Z,0.70
2022-10-09T13:38:35.071Z,0.63
2022-10-09T13:41:03.811Z,0.77
2022-10-09T13:43:31.761Z,0.50
2022-10-09T13:46:00.441Z,0.50
2022-10-09T13:48:29.594Z,0.50
2022-10-09T13:50:59.949Z,0.50
2022-10-09T13:53:28.470Z,0.40
2022-10-09T13:56:00.750Z,0.63
2022-10-09T13:58:29.586Z,0.87
2022-10-09T14:00:58.235Z,0.73
2022-10-09T14:03:26.259Z,1.33
2022-10-09T14:06:00.414Z,0.80
2022-10-09T14:08:28.697Z,0.57
2022-10-09T14:10:56.778Z,0.73
2022-10-09T14:13:24.791Z,0.83
2022-10-09T14:15:53.223Z,0.47
2022-10-09T14:18:21.301Z,0.43
2022-10-09T14:20:49.238Z,0.60
2022-10-09T14:23:18.481Z,0.63
2022-10-09T14:25:46.451Z,1.07
2022-10-09T14:28:14.476Z,0.77
2022-10-09T14:30:42.878Z,0.90
2022-10-09T14:33:12.503Z,0.97
2022-10-09T14:35:40.732Z,0.80
2022-10-09T14:38:08.765Z,0.70
2022-10-09T14:40:42.814Z,0.53
2022-10-09T14:43:11.112Z,0.70
2022-10-09T14:45:39.466Z,0.87
2022-10-09T14:48:07.382Z,0.70
2022-10-09T14:50:37.392Z,0.77
2022-10-09T14:53:05.425Z,0.97
2022-10-09T14:55:36.841Z,0.70
2022-10-09T14:58:04.868Z,0.60
2022-10-09T15:00:32.915Z,1.00
2022-10-09T15:03:00.954Z,0.70
2022-10-09T15:05:28.920Z,1.10
2022-10-09T15:07:56.950Z,0.87
2022-10-09T15:10:24.935Z,0.70
2022-10-09T15:12:54.403Z,1.13
2022-10-09T15:15:22.442Z,1.67
2022-10-09T15:17:50.688Z,1.50
2022-10-09T15:20:18.849Z,1.00
2022-10-09T15:22:46.883Z,0.90
2022-10-09T15:25:15.764Z,1.63
2022-10-09T15:27:43.977Z,1.17
2022-10-09T15:30:14.164Z,1.67
2022-10-09T15:32:42.230Z,0.90
2022-10-09T15:35:10.776Z,1.47
2022-10-09T15:37:38.944Z,1.63
2022-10-09T15:40:07.852Z,1.50
2022-10-09T15:42:37.052Z,1.67
2022-10-09T15:45:05.495Z,1.67
2022-10-09T15:47:50.336Z,1.93
2022-10-09T15:50:18.865Z,1.80
2022-10-09T15:52:46.904Z,1.67
2022-10-09T15:55:15.083Z,1.50
2022-10-09T15:57:42.940Z,1.00
2022-10-09T16:00:12.038Z,1.00
2022-10-09T16:02:41.642Z,0.70
2022-10-09T16:05:10.496Z,0.90
2022-10-09T16:07:38.284Z,0.90
2022-10-09T16:10:06.856Z,0.90
2022-10-09T16:12:34.978Z,0.80
2022-10-09T16:15:03.100Z,0.67
2022-10-09T16:17:31.350Z,0.80
2022-10-09T16:20:01.026Z,0.70
2022-10-09T16:22:29.080Z,0.80
2022-10-09T16:24:56.914Z,0.73
2022-10-09T16:27:24.976Z,0.93
2022-10-09T16:29:52.913Z,1.03
2022-10-09T16:32:21.070Z,0.80
2022-10-09T16:34:50.150Z,1.03
2022-10-09T16:37:19.564Z,1.20
2022-10-09T16:39:49.364Z,1.20
2022-10-09T16:42:17.295Z,1.10
2022-10-09T16:44:45.317Z,1.67
2022-10-09T16:47:14.197Z,1.40
2022-10-09T16:49:42.178Z,1.50
2022-10-09T16:52:10.177Z,1.73
2022-10-09T16:54:40.115Z,1.50
2022-10-09T16:57:08.183Z,1.37
2022-10-09T16:59:36.533Z,1.33
2022-10-09T17:02:04.524Z,1.37
2022-10-09T17:04:32.651Z,2.03
2022-10-09T17:07:00.722Z,1.90
2022-10-09T17:09:29.577Z,3.70
2022-10-09T17:11:58.800Z,3.60
2022-10-09T17:14:26.825Z,3.63
2022-10-09T17:16:54.696Z,3.63
2022-10-09T17:19:22.598Z,3.97
2022-10-09T17:21:50.578Z,4.00
2022-10-09T17:24:18.633Z,4.73
2022-10-09T17:26:46.673Z,4.17
2022-10-09T17:29:16.051Z,5.00
2022-10-09T17:31:43.990Z,4.13
2022-10-09T17:34:13.439Z,5.40
2022-10-09T17:36:42.535Z,4.77
2022-10-09T17:39:13.482Z,2.97
2022-10-09T17:41:41.443Z,2.53
2022-10-09T17:44:10.490Z,2.60
2022-10-09T17:46:40.155Z,2.10
2022-10-09T17:49:08.489Z,1.97
2022-10-09T17:51:39.051Z,2.50
2022-10-09T17:54:11.709Z,2.23
2022-10-09T17:56:40.707Z,1.10
2022-10-09T17:59:09.308Z,1.30
2022-10-09T18:01:37.735Z,1.23
2022-10-09T18:04:07.362Z,1.00
2022-10-09T18:06:36.554Z,0.80
2022-10-09T18:09:04.913Z,1.47
2022-10-09T18:11:33.066Z,1.33
2022-10-09T18:14:01.134Z,0.90
2022-10-09T18:16:35.700Z,1.30
2022-10-09T18:19:07.853Z,1.10
2022-10-09T18:21:36.292Z,1.20
2022-10-09T18:24:04.516Z,1.10
2022-10-09T18:26:32.474Z,1.20
2022-10-09T18:29:01.107Z,1.07
2022-10-09T18:31:29.742Z,1.07
2022-10-09T18:33:59.042Z,0.93
2022-10-09T18:36:33.836Z,1.10
2022-10-09T18:39:04.326Z,1.30
2022-10-09T18:41:32.958Z,1.33
2022-10-09T18:44:02.231Z,1.10
2022-10-09T18:46:35.015Z,1.07
2022-10-09T18:49:03.430Z,1.47
2022-10-09T18:51:33.001Z,1.63
2022-10-09T18:54:03.794Z,2.63
2022-10-09T18:56:33.804Z,2.00
2022-10-09T18:59:04.766Z,2.30
2022-10-09T19:01:32.997Z,1.80
2022-10-09T19:04:01.348Z,1.40
2022-10-09T19:06:29.932Z,1.87
2022-10-09T19:09:01.072Z,1.70
2022-10-09T19:11:30.061Z,1.03
2022-10-09T19:14:00.178Z,1.33
2022-10-09T19:16:28.821Z,0.97
2022-10-09T19:18:57.050Z,1.27
2022-10-09T19:21:25.750Z,1.40
2022-10-09T19:23:55.591Z,1.40
2022-10-09T19:26:24.898Z,1.30
2022-10-09T19:28:53.048Z,1.37
2022-10-09T19:31:21.225Z,0.90
2022-10-09T19:33:49.380Z,1.23
2022-10-09T19:36:17.570Z,0.93
2022-10-09T19:38:45.877Z,1.17
2022-10-09T19:41:15.497Z,1.03
2022-10-09T19:43:45.522Z,1.23
2022-10-09T19:46:17.373Z,1.07
2022-10-09T19:48:45.952Z,1.10
2022-10-09T19:51:15.721Z,1.47
2022-10-09T19:53:44.125Z,1.40
2022-10-09T19:56:13.967Z,1.53
2022-10-09T19:58:45.041Z,1.73
2022-10-09T20:01:14.085Z,1.47
2022-10-09T20:03:42.655Z,1.60
2022-10-09T20:06:11.453Z,1.47
2022-10-09T20:08:40.646Z,1.33
2022-10-09T20:11:11.449Z,1.07
2022-10-09T20:13:40.832Z,1.40
2022-10-09T20:16:12.945Z,1.70
2022-10-09T20:18:42.443Z,1.30
2022-10-09T20:21:10.811Z,1.17
2022-10-09T20:23:38.982Z,1.00
2022-10-09T20:26:09.105Z,1.43
2022-10-09T20:28:38.505Z,1.10
2022-10-09T20:31:11.314Z,1.00
2022-10-09T20:33:39.956Z,1.17
2022-10-09T20:36:08.998Z,1.10
2022-10-09T20:38:37.419Z,1.20
2022-10-09T20:41:07.653Z,1.17
2022-10-09T20:43:35.677Z,1.07
2022-10-09T20:46:07.241Z,1.07
2022-10-09T20:48:36.901Z,1.20
2022-10-09T20:51:05.039Z,1.23
2022-10-09T20:53:33.033Z,1.23
2022-10-09T20:56:02.293Z,1.53
2022-10-09T20:58:30.708Z,1.10
2022-10-09T21:00:58.770Z,1.67
2022-10-09T21:03:26.948Z,1.40
2022-10-09T21:05:57.081Z,1.07
2022-10-09T21:08:25.035Z,1.33
2022-10-09T21:10:53.263Z,2.13
2022-10-09T21:13:21.161Z,1.53
2022-10-09T21:15:50.393Z,1.53
2022-10-09T21:18:20.278Z,1.50
2022-10-09T21:20:49.398Z,2.00
2022-10-09T21:23:20.570Z,1.87
2022-10-09T21:25:52.999Z,1.90
2022-10-09T21:28:22.347Z,1.33
2022-10-09T21:30:50.809Z,2.30
2022-10-09T21:33:19.420Z,1.37
2022-10-09T21:35:50.648Z,1.90
2022-10-09T21:38:21.851Z,2.00
2022-10-09T21:40:50.456Z,2.00
2022-10-09T21:43:19.314Z,1.70
2022-10-09T21:45:50.920Z,1.90
2022-10-09T21:48:19.600Z,1.63
2022-10-09T21:50:47.622Z,1.80
2022-10-09T21:53:15.659Z,1.37
2022-10-09T21:55:44.960Z,2.27
2022-10-09T21:58:13.030Z,1.30
2022-10-09T22:00:41.214Z,1.43
2022-10-09T22:03:09.126Z,1.80
2022-10-09T22:05:40.485Z,1.63
2022-10-09T22:08:08.465Z,1.47
2022-10-09T22:10:36.909Z,1.80
2022-10-09T22:13:06.281Z,1.77
2022-10-09T22:15:34.357Z,1.30
2022-10-09T22:18:02.561Z,1.30
2022-10-09T22:20:31.757Z,1.57
2022-10-09T22:22:59.761Z,1.40
2022-10-09T22:25:28.436Z,1.60
2022-10-09T22:27:56.506Z,1.43
2022-10-09T22:30:25.940Z,1.43
2022-10-09T22:32:54.709Z,1.20
2022-10-09T22:35:24.370Z,1.40
2022-10-09T22:37:52.318Z,1.20
2022-10-09T22:40:20.290Z,1.40
2022-10-09T22:42:48.744Z,1.37
2022-10-09T22:45:16.997Z,1.37
2022-10-09T22:47:48.027Z,1.87
2022-10-09T22:50:16.021Z,1.03
2022-10-09T22:52:45.850Z,1.20
2022-10-09T22:55:13.772Z,1.20
2022-10-09T22:57:41.973Z,1.83
2022-10-09T23:00:11.187Z,1.27
2022-10-09T23:02:39.155Z,1.70
2022-10-09T23:05:09.298Z,1.20
2022-10-09T23:07:37.285Z,1.40
2022-10-09T23:10:05.766Z,1.30
2022-10-09T23:12:33.728Z,1.17
2022-10-09T23:15:01.660Z,0.90
2022-10-09T23:17:29.549Z,1.10
2022-10-09T23:19:57.441Z,1.20
2022-10-09T23:22:26.787Z,1.53
2022-10-09T23:24:54.679Z,1.53
2022-10-09T23:27:22.565Z,1.37
2022-10-09T23:29:50.477Z,1.33
2022-10-09T23:32:18.440Z,1.60
2022-10-09T23:34:46.650Z,1.57
2022-10-09T23:37:14.625Z,1.80
2022-10-09T23:39:44.111Z,1.70
2022-10-09T23:42:12.184Z,1.20
2022-10-09T23:44:40.292Z,1.20
2022-10-09T23:47:08.230Z,1.93
2022-10-09T23:49:36.246Z,1.27
2022-10-09T23:52:04.445Z,1.30
2022-10-09T23:54:32.379Z,1.63
2022-10-09T23:57:01.745Z,1.53
2022-10-09T23:59:29.713Z,1.10
